Time;durP1;ratioP1;P1;durP2;ratioP2;P2;SDS_P1;SDS_P2;PMS_P1;PMS_P2;Temp;Humidity;BMP_temperature;BMP_pressure;BME280_temperature;BME280_humidity;BME280_pressure;Samples;Min_cycle;Max_cycle;Signal;HPM_P1;HPM_P2
2022/10/03 00:02:47;;;;;;;6.60;1.17;;;36.60;54.30;;;;;;5020449;28;20391;-66
2022/10/03 00:06:00;;;;;;;7.10;1.63;;;36.50;54.60;;;;;;5021029;28;20041;-66
2022/10/03 00:08:52;;;;;;;7.43;1.77;;;36.40;54.20;;;;;;5021554;28;20483;-65
2022/10/03 00:11:40;;;;;;;10.77;1.45;;;36.30;54.40;;;;;;5014555;28;20038;-64
2022/10/03 00:14:43;;;;;;;4.03;1.50;;;36.20;54.50;;;;;;5018525;28;20044;-64
2022/10/03 00:17:12;;;;;;;7.53;1.50;;;36.20;54.50;;;;;;5022523;28;20103;-67
2022/10/03 00:19:48;;;;;;;5.70;1.48;;;36.10;54.00;;;;;;5025005;28;20034;-66
2022/10/03 00:22:17;;;;;;;9.27;2.20;;;35.90;53.70;;;;;;5020975;28;20014;-64
2022/10/03 00:25:12;;;;;;;6.72;1.95;;;35.90;54.70;;;;;;5024340;28;20026;-65
2022/10/03 00:27:42;;;;;;;8.55;2.30;;;35.90;55.20;;;;;;5024896;28;20022;-66
2022/10/03 00:30:29;;;;;;;5.80;1.73;;;35.80;55.50;;;;;;5020953;28;20652;-64
2022/10/03 00:33:23;;;;;;;12.35;1.90;;;35.80;56.00;;;;;;5021452;28;20030;-65
2022/10/03 00:35:53;;;;;;;4.53;1.60;;;35.80;56.00;;;;;;5022442;28;20140;-66
2022/10/03 00:39:05;;;;;;;7.53;1.70;;;35.70;55.80;;;;;;5023427;28;20360;-66
2022/10/03 00:42:08;;;;;;;5.18;1.60;;;35.70;55.90;;;;;;5004432;28;20136;-67
2022/10/03 00:45:01;;;;;;;13.95;1.75;;;35.60;54.90;;;;;;5023514;28;20087;-64
2022/10/03 00:47:49;;;;;;;13.00;2.13;;;35.50;55.30;;;;;;5021058;28;20032;-65
2022/10/03 00:50:31;;;;;;;4.38;1.85;;;35.40;55.60;;;;;;5019903;28;20033;-65
2022/10/03 00:53:09;;;;;;;7.60;1.58;;;35.30;55.70;;;;;;5018250;28;20021;-65
2022/10/03 00:56:00;;;;;;;6.80;1.70;;;35.30;56.30;;;;;;5023243;28;20029;-65
2022/10/03 00:58:43;;;;;;;11.45;2.25;;;35.20;56.50;;;;;;5022097;28;20033;-65
2022/10/03 01:01:35;;;;;;;13.55;2.22;;;35.20;57.20;;;;;;5018297;28;20044;-66
2022/10/03 01:04:13;;;;;;;10.85;2.20;;;35.10;56.80;;;;;;5020729;28;20025;-65
2022/10/03 01:06:58;;;;;;;11.45;2.00;;;35.00;57.10;;;;;;5019498;28;20022;-65
2022/10/03 01:10:02;;;;;;;12.50;1.83;;;35.00;57.30;;;;;;5023606;28;20021;-69
2022/10/03 01:13:06;;;;;;;5.20;1.58;;;34.90;57.70;;;;;;5014567;28;20037;-65
2022/10/03 01:15:50;;;;;;;7.10;1.70;;;34.80;57.30;;;;;;4987812;28;20121;-67
2022/10/03 01:18:17;;;;;;;16.75;3.58;;;34.70;57.60;;;;;;4987898;28;20030;-64
2022/10/03 01:20:52;;;;;;;9.85;2.70;;;34.70;57.60;;;;;;4988738;28;20030;-68
2022/10/03 01:23:27;;;;;;;8.03;3.93;;;34.70;57.40;;;;;;4987552;28;20042;-65
2022/10/03 01:26:15;;;;;;;15.87;4.23;;;34.60;57.50;;;;;;4988324;28;20034;-64
2022/10/03 01:32:13;;;;;;;16.50;3.35;;;34.50;57.80;;;;;;4988511;28;20507;-64
2022/10/03 01:35:10;;;;;;;9.15;2.30;;;34.40;58.10;;;;;;4988276;28;20690;-66
2022/10/03 01:37:42;;;;;;;11.52;2.80;;;34.40;58.20;;;;;;4987755;28;20026;-66
2022/10/03 01:40:49;;;;;;;18.38;2.60;;;34.40;58.50;;;;;;4988400;28;20054;-64
2022/10/03 01:43:24;;;;;;;9.13;2.00;;;34.30;58.60;;;;;;4892753;29;20048;-67
2022/10/03 01:46:09;;;;;;;13.98;2.58;;;34.30;58.80;;;;;;4892082;29;20036;-63
2022/10/03 01:48:42;;;;;;;18.67;2.83;;;34.20;59.00;;;;;;4893026;29;20025;-65
2022/10/03 01:51:20;;;;;;;13.25;2.67;;;34.10;58.90;;;;;;4898334;29;20426;-65
2022/10/03 01:53:49;;;;;;;15.50;3.08;;;34.00;59.10;;;;;;4920622;29;20087;-65
2022/10/03 01:56:31;;;;;;;26.08;3.60;;;34.00;59.30;;;;;;4924444;29;20036;-65
2022/10/03 01:59:18;;;;;;;18.83;2.97;;;34.00;59.50;;;;;;4908581;29;20040;-66
2022/10/03 02:01:47;;;;;;;17.98;2.78;;;33.90;59.70;;;;;;4921757;29;20027;-66
2022/10/03 02:04:22;;;;;;;26.42;2.97;;;33.90;60.20;;;;;;4916835;29;20437;-64
2022/10/03 02:07:16;;;;;;;24.88;3.35;;;33.80;60.30;;;;;;4915864;29;20874;-63
2022/10/03 02:10:12;;;;;;;24.35;3.45;;;33.80;61.40;;;;;;4908310;29;20040;-64
2022/10/03 02:12:54;;;;;;;22.02;3.20;;;33.80;60.60;;;;;;4914806;29;20123;-63
2022/10/03 02:15:53;;;;;;;24.00;3.72;;;33.80;60.90;;;;;;4914525;29;20509;-63
2022/10/03 02:18:49;;;;;;;17.75;3.83;;;33.70;61.00;;;;;;4941964;28;20037;-65
2022/10/03 02:21:44;;;;;;;21.98;4.35;;;33.70;62.20;;;;;;5017788;28;20029;-61
2022/10/03 02:24:16;;;;;;;14.95;4.13;;;33.70;61.70;;;;;;5018234;28;20026;-64
2022/10/03 02:26:52;;;;;;;23.23;4.25;;;33.60;62.00;;;;;;5012882;28;20045;-63
2022/10/03 02:29:32;;;;;;;21.07;4.10;;;33.60;62.40;;;;;;5018860;28;20431;-63
2022/10/03 02:32:30;;;;;;;18.48;4.13;;;33.50;62.40;;;;;;5013712;28;20037;-65
2022/10/03 02:35:07;;;;;;;21.17;4.55;;;33.60;62.80;;;;;;5013214;28;20569;-63
2022/10/03 02:38:04;;;;;;;19.08;4.43;;;33.50;63.10;;;;;;5012565;28;20073;-64
2022/10/03 02:40:48;;;;;;;;;;;33.40;63.30;;;;;;5016595;28;20029;-62
2022/10/03 02:43:48;;;;;;;13.48;4.10;;;33.40;63.60;;;;;;5021424;28;19917;-63
2022/10/03 02:46:33;;;;;;;23.98;4.25;;;33.30;64.00;;;;;;5019316;28;20172;-65
2022/10/03 02:49:17;;;;;;;18.05;4.28;;;33.30;64.40;;;;;;5017288;28;20394;-65
2022/10/03 02:52:08;;;;;;;25.25;4.13;;;33.30;64.60;;;;;;5022012;28;20052;-61
2022/10/03 02:55:02;;;;;;;14.73;3.72;;;33.30;64.90;;;;;;5016313;28;20356;-65
2022/10/03 02:57:41;;;;;;;17.05;3.72;;;33.20;65.10;;;;;;5019061;28;20037;-66
2022/10/03 03:00:21;;;;;;;16.40;2.90;;;33.20;65.20;;;;;;5016815;28;20021;-66
2022/10/03 03:03:02;;;;;;;12.80;3.60;;;33.10;65.50;;;;;;5017632;28;20033;-64
2022/10/03 03:05:58;;;;;;;16.85;3.97;;;33.10;65.70;;;;;;5020595;28;20091;-65
2022/10/03 03:08:57;;;;;;;21.15;5.43;;;33.10;65.90;;;;;;5016828;28;20442;-63
2022/10/03 03:11:38;;;;;;;20.45;6.75;;;33.10;66.10;;;;;;5017609;28;20029;-63
2022/10/03 03:14:50;;;;;;;27.08;7.68;;;33.00;66.10;;;;;;5018521;28;20033;-65
2022/10/03 03:17:57;;;;;;;19.38;6.38;;;33.00;66.40;;;;;;5014811;28;20116;-63
2022/10/03 03:21:01;;;;;;;23.98;6.60;;;32.90;66.50;;;;;;5017165;28;20022;-63
2022/10/03 03:23:44;;;;;;;25.65;5.78;;;32.80;66.60;;;;;;5018650;28;20030;-65
2022/10/03 03:26:31;;;;;;;12.52;4.25;;;32.80;66.80;;;;;;5016751;28;20030;-66
2022/10/03 03:29:39;;;;;;;18.05;2.92;;;32.80;67.10;;;;;;5020221;28;20048;-64
2022/10/03 03:32:27;;;;;;;18.80;2.70;;;32.70;67.20;;;;;;5021025;28;20032;-63
2022/10/03 03:35:27;;;;;;;5.40;1.83;;;32.70;67.50;;;;;;5016943;28;20116;-63
2022/10/03 03:37:53;;;;;;;12.27;2.10;;;32.60;67.60;;;;;;5023278;28;20116;-62
2022/10/03 03:40:48;;;;;;;12.90;2.20;;;32.60;67.70;;;;;;5016316;28;20028;-61
2022/10/03 03:43:49;;;;;;;7.32;1.92;;;32.50;67.80;;;;;;5012894;28;20041;-64
2022/10/03 03:46:34;;;;;;;8.35;2.08;;;32.50;67.90;;;;;;5013601;28;20036;-62
2022/10/03 03:49:28;;;;;;;6.57;2.33;;;32.50;68.00;;;;;;5016861;28;20688;-63
2022/10/03 03:52:11;;;;;;;7.25;2.42;;;32.40;68.20;;;;;;5019490;28;20036;-63
2022/10/03 03:55:01;;;;;;;8.63;2.30;;;32.40;68.20;;;;;;5014536;28;20026;-64
2022/10/03 03:57:45;;;;;;;7.65;1.92;;;32.40;69.10;;;;;;5016282;28;20025;-63
2022/10/03 04:00:34;;;;;;;8.95;2.17;;;32.40;68.70;;;;;;5019782;28;20018;-63
2022/10/03 04:03:35;;;;;;;6.57;2.13;;;32.40;68.50;;;;;;5015046;28;20046;-62
2022/10/03 04:06:19;;;;;;;11.93;2.45;;;32.40;68.70;;;;;;5021251;28;20037;-63
2022/10/03 04:09:21;;;;;;;11.07;2.60;;;32.40;68.80;;;;;;5016754;28;20125;-63
2022/10/03 04:11:58;;;;;;;16.58;3.10;;;32.30;68.70;;;;;;5015798;28;20026;-65
2022/10/03 04:15:01;;;;;;;9.18;2.88;;;32.30;68.90;;;;;;5017325;28;20053;-66
2022/10/03 04:20:43;;;;;;;12.50;3.15;;;32.20;69.10;;;;;;5020396;28;20132;-61
2022/10/03 04:23:27;;;;;;;15.38;2.80;;;32.20;69.10;;;;;;5015341;28;20037;-65
2022/10/03 04:26:42;;;;;;;16.90;3.10;;;32.20;69.20;;;;;;5019183;28;20057;-65
2022/10/03 04:29:21;;;;;;;9.93;2.80;;;32.20;69.30;;;;;;4974217;28;20034;-65
2022/10/03 04:32:13;;;;;;;17.50;3.20;;;32.10;69.20;;;;;;4980866;28;20480;-62
2022/10/03 04:34:59;;;;;;;8.70;3.08;;;32.10;69.20;;;;;;4969875;28;20061;-64
2022/10/03 04:37:44;;;;;;;10.77;2.70;;;32.10;69.20;;;;;;4976650;28;20394;-63
2022/10/03 04:40:22;;;;;;;13.73;3.10;;;32.10;69.40;;;;;;4976889;28;20046;-63
2022/10/03 04:42:54;;;;;;;9.85;3.10;;;32.00;69.50;;;;;;4975332;28;20023;-66
2022/10/03 04:45:27;;;;;;;11.32;2.80;;;32.00;69.70;;;;;;4977688;28;20436;-64
2022/10/03 04:48:19;;;;;;;12.30;3.20;;;32.00;69.80;;;;;;4975874;28;20039;-64
2022/10/03 04:51:23;;;;;;;12.15;2.90;;;31.90;69.60;;;;;;4953772;28;20051;-65
2022/10/03 04:53:56;;;;;;;8.48;2.80;;;31.90;69.80;;;;;;4981380;28;20039;-66
2022/10/03 04:57:06;;;;;;;12.75;2.80;;;31.90;69.90;;;;;;4978809;28;20088;-66
2022/10/03 05:00:01;;;;;;;;;;;31.90;70.10;;;;;;4908256;29;20404;-63
2022/10/03 05:02:35;;;;;;;12.00;2.10;;;31.80;70.30;;;;;;4900327;29;19962;-67
2022/10/03 05:05:36;;;;;;;15.27;2.30;;;31.80;70.30;;;;;;4927590;29;20167;-67
2022/10/03 05:08:22;;;;;;;10.70;2.47;;;31.80;70.50;;;;;;4928329;29;20417;-67
2022/10/03 05:10:52;;;;;;;22.27;3.28;;;31.80;70.80;;;;;;4921781;29;20079;-68
2022/10/03 05:13:38;;;;;;;27.48;3.92;;;31.80;70.90;;;;;;4924358;29;20588;-66
2022/10/03 05:16:13;;;;;;;7.10;2.60;;;31.80;70.60;;;;;;4914807;29;20059;-69
2022/10/03 05:18:52;;;;;;;9.98;2.40;;;31.70;70.30;;;;;;4925063;29;20051;-66
2022/10/03 05:22:02;;;;;;;8.32;2.20;;;31.70;70.50;;;;;;4927421;29;20146;-66
2022/10/03 05:24:47;;;;;;;10.95;2.00;;;31.70;70.70;;;;;;4924878;29;20481;-65
2022/10/03 05:27:29;;;;;;;13.57;2.45;;;31.70;70.50;;;;;;4922447;29;20383;-69
2022/10/03 05:30:08;;;;;;;9.75;2.17;;;31.60;70.50;;;;;;4920119;29;20052;-66
2022/10/03 05:32:45;;;;;;;18.55;2.90;;;31.60;70.50;;;;;;4926945;29;20052;-64
2022/10/03 05:35:33;;;;;;;14.88;2.42;;;31.60;70.70;;;;;;4936486;28;20118;-65
2022/10/03 05:38:08;;;;;;;13.23;2.83;;;31.50;70.50;;;;;;5020193;28;20022;-66
2022/10/03 05:40:37;;;;;;;13.95;2.80;;;31.50;70.90;;;;;;5013507;28;20018;-67
2022/10/03 05:43:44;;;;;;;8.82;2.65;;;31.50;71.00;;;;;;5015561;28;20032;-64
2022/10/03 05:46:30;;;;;;;13.65;2.67;;;31.50;70.80;;;;;;5015811;28;20049;-66
2022/10/03 05:49:47;;;;;;;12.13;2.50;;;31.40;70.10;;;;;;4999658;28;20435;-67
2022/10/03 05:52:41;;;;;;;11.10;2.30;;;31.40;69.90;;;;;;5018500;28;20036;-65
2022/10/03 05:55:31;;;;;;;7.63;2.65;;;31.40;69.80;;;;;;5019316;28;20483;-64
2022/10/03 05:58:19;;;;;;;12.13;2.40;;;31.40;70.40;;;;;;5017134;28;20156;-64
2022/10/03 06:01:15;;;;;;;17.00;2.70;;;31.30;69.20;;;;;;5016122;28;20025;-68
2022/10/03 06:03:57;;;;;;;15.48;4.00;;;31.40;70.00;;;;;;5019368;28;20382;-66
2022/10/03 06:06:50;;;;;;;22.27;7.13;;;31.40;69.10;;;;;;5016442;28;20033;-66
2022/10/03 06:09:44;;;;;;;17.17;6.43;;;31.30;69.20;;;;;;5014154;28;20022;-64
2022/10/03 06:12:43;;;;;;;18.83;3.80;;;31.20;69.40;;;;;;5013121;28;20105;-66
2022/10/03 06:15:32;;;;;;;11.70;2.40;;;31.20;69.40;;;;;;5012234;28;20041;-66
2022/10/03 06:18:11;;;;;;;13.25;2.65;;;31.20;69.70;;;;;;5013059;28;20045;-68
2022/10/03 06:21:02;;;;;;;12.85;2.78;;;31.10;69.80;;;;;;5012871;28;20029;-65
2022/10/03 06:23:56;;;;;;;15.02;2.78;;;31.10;69.60;;;;;;5021220;28;20072;-66
2022/10/03 06:26:44;;;;;;;14.48;2.60;;;31.10;69.50;;;;;;5016884;28;20022;-67
2022/10/03 06:29:46;;;;;;;11.68;2.75;;;31.00;69.10;;;;;;5019002;28;20025;-65
2022/10/03 06:32:30;;;;;;;9.70;2.30;;;31.00;69.00;;;;;;5017355;28;20036;-67
2022/10/03 06:35:31;;;;;;;14.27;2.78;;;31.00;68.40;;;;;;5021043;28;21024;-66
2022/10/03 06:38:04;;;;;;;10.57;2.13;;;31.00;68.60;;;;;;5020477;28;20120;-65
2022/10/03 06:40:59;;;;;;;10.00;2.30;;;31.00;69.20;;;;;;5020391;28;20084;-65
2022/10/03 06:43:37;;;;;;;10.27;2.67;;;31.00;68.80;;;;;;5016216;28;20026;-67
2022/10/03 06:46:18;;;;;;;13.18;2.47;;;31.00;68.90;;;;;;5017207;28;20018;-70
2022/10/03 06:49:23;;;;;;;19.20;2.58;;;31.30;68.60;;;;;;5021280;28;20080;-69
2022/10/03 06:52:07;;;;;;;12.18;2.70;;;31.30;67.70;;;;;;5008941;28;20082;-68
2022/10/03 06:55:03;;;;;;;16.20;2.88;;;31.30;67.90;;;;;;5024647;28;20297;-69
2022/10/03 06:57:44;;;;;;;15.65;2.83;;;31.30;67.80;;;;;;5025173;28;20026;-65
2022/10/03 07:00:12;;;;;;;12.45;2.53;;;31.30;67.70;;;;;;5026016;28;20026;-67
2022/10/03 07:02:56;;;;;;;18.55;2.80;;;31.40;67.50;;;;;;5027487;28;20025;-67
2022/10/03 07:05:59;;;;;;;13.20;2.78;;;31.40;67.00;;;;;;5021558;28;20026;-68
2022/10/03 07:09:01;;;;;;;29.15;3.25;;;31.40;66.90;;;;;;4969828;28;20035;-66
2022/10/03 07:11:37;;;;;;;12.32;2.20;;;31.40;67.50;;;;;;4878217;29;20033;-68
2022/10/03 07:14:47;;;;;;;17.50;2.58;;;31.50;68.60;;;;;;4960225;28;20239;-67
2022/10/03 07:17:30;;;;;;;20.67;2.60;;;31.40;68.40;;;;;;4970476;28;20082;-64
2022/10/03 07:20:18;;;;;;;15.25;3.35;;;31.30;68.10;;;;;;4969765;28;20035;-64
2022/10/03 07:23:19;;;;;;;16.00;3.67;;;31.20;67.90;;;;;;4970639;28;20031;-67
2022/10/03 07:26:17;;;;;;;14.23;2.63;;;31.20;68.50;;;;;;4971404;28;20492;-64
2022/10/03 07:28:55;;;;;;;11.75;2.60;;;31.40;68.60;;;;;;4945058;28;20515;-67
2022/10/03 07:31:51;;;;;;;14.32;2.80;;;31.50;68.00;;;;;;4955047;28;20394;-67
2022/10/03 07:34:23;;;;;;;15.43;2.63;;;31.40;68.10;;;;;;4970316;28;20042;-66
2022/10/03 07:40:39;;;;;;;12.63;2.35;;;31.30;68.60;;;;;;4969902;28;20085;-63
2022/10/03 07:43:18;;;;;;;16.48;2.92;;;31.20;69.20;;;;;;4978755;28;20043;-65
2022/10/03 07:46:04;;;;;;;10.98;2.50;;;31.20;69.10;;;;;;5023942;28;20029;-65
2022/10/03 07:49:01;;;;;;;10.57;2.80;;;31.10;68.60;;;;;;5025773;28;20129;-63
2022/10/03 07:51:34;;;;;;;13.95;2.50;;;31.10;68.70;;;;;;5022629;28;20040;-65
2022/10/03 07:54:18;;;;;;;9.55;2.33;;;31.00;68.60;;;;;;5023922;28;20415;-64
2022/10/03 07:56:50;;;;;;;6.63;2.70;;;31.00;68.90;;;;;;5024214;28;21661;-65
2022/10/03 07:59:48;;;;;;;14.68;3.10;;;30.90;69.30;;;;;;5023593;28;21235;-65
2022/10/03 08:02:33;;;;;;;14.98;2.58;;;30.90;69.50;;;;;;5024428;28;20424;-68
2022/10/03 08:05:16;;;;;;;20.45;2.70;;;30.90;69.80;;;;;;5024283;28;20115;-65
2022/10/03 08:08:19;;;;;;;18.67;2.95;;;30.90;69.30;;;;;;5022235;28;20438;-64
2022/10/03 08:11:04;;;;;;;19.92;3.45;;;30.90;68.40;;;;;;5020779;28;20534;-66
2022/10/03 08:13:55;;;;;;;30.05;3.60;;;30.80;68.50;;;;;;5024223;28;20025;-67
2022/10/03 08:16:49;;;;;;;19.00;3.92;;;30.80;68.50;;;;;;5026412;28;20045;-67
2022/10/03 08:19:31;;;;;;;25.02;4.07;;;30.70;68.60;;;;;;5020030;28;20022;-66
2022/10/03 08:22:03;;;;;;;22.00;4.50;;;30.70;68.70;;;;;;5029646;28;20025;-65
2022/10/03 08:24:32;;;;;;;19.45;4.20;;;30.60;68.80;;;;;;5021957;28;20033;-65
2022/10/03 08:27:22;;;;;;;18.05;3.63;;;30.60;69.40;;;;;;5017859;28;20021;-67
2022/10/03 08:29:58;;;;;;;21.25;4.47;;;30.60;69.60;;;;;;5022084;28;20430;-67
2022/10/03 08:32:53;;;;;;;24.85;4.05;;;30.60;69.20;;;;;;5022036;28;20386;-65
2022/10/03 08:35:33;;;;;;;25.17;4.70;;;30.50;69.30;;;;;;5019371;28;20045;-64
2022/10/03 08:38:40;;;;;;;27.95;4.72;;;30.40;69.60;;;;;;5022556;28;20029;-64
2022/10/03 08:41:51;;;;;;;11.38;3.70;;;30.50;70.00;;;;;;5025377;28;20037;-64
2022/10/03 08:44:45;;;;;;;18.52;4.10;;;30.60;70.40;;;;;;5020981;28;20037;-66
2022/10/03 08:47:26;;;;;;;12.68;3.95;;;30.50;71.00;;;;;;5022216;28;20486;-65
2022/10/03 08:49:59;;;;;;;21.58;3.58;;;30.50;71.90;;;;;;5023939;28;20517;-67
2022/10/03 08:52:40;;;;;;;24.23;3.90;;;30.50;72.40;;;;;;5022643;28;20025;-64
2022/10/03 08:56:06;;;;;;;18.33;3.70;;;30.50;72.90;;;;;;5022472;28;20113;-67
2022/10/03 08:59:29;;;;;;;13.48;2.90;;;30.50;73.80;;;;;;4938132;29;20363;-63
2022/10/03 09:02:08;;;;;;;15.10;3.40;;;30.40;74.70;;;;;;4949690;29;20035;-67
2022/10/03 09:04:53;;;;;;;14.93;3.67;;;30.30;75.20;;;;;;4939156;29;20118;-65
2022/10/03 09:07:45;;;;;;;10.75;3.08;;;30.30;75.70;;;;;;4938432;29;20177;-66
2022/10/03 09:10:34;;;;;;;13.40;3.08;;;30.30;76.40;;;;;;4937900;29;20034;-65
2022/10/03 09:13:27;;;;;;;12.13;3.55;;;30.30;76.80;;;;;;4942445;29;20497;-66
2022/10/03 09:16:19;;;;;;;10.52;3.63;;;30.20;77.30;;;;;;4939849;29;20062;-67
2022/10/03 09:18:48;;;;;;;12.90;3.47;;;30.10;77.60;;;;;;4946847;29;20114;-68
2022/10/03 09:21:52;;;;;;;11.05;3.50;;;30.10;77.80;;;;;;4940887;29;20042;-64
2022/10/03 09:24:55;;;;;;;14.30;3.33;;;30.10;78.00;;;;;;4906002;29;20046;-65
2022/10/03 09:27:27;;;;;;;16.88;3.80;;;30.00;78.30;;;;;;4904635;29;20115;-64
2022/10/03 09:30:11;;;;;;;19.05;3.78;;;30.00;78.50;;;;;;4962460;28;20047;-67
2022/10/03 09:33:02;;;;;;;15.15;3.42;;;29.90;78.90;;;;;;4979966;28;20038;-65
2022/10/03 09:35:44;;;;;;;14.13;3.70;;;29.90;79.30;;;;;;4977975;28;20033;-65
2022/10/03 09:38:28;;;;;;;15.23;3.22;;;29.90;79.50;;;;;;4983667;28;20102;-66
2022/10/03 09:41:31;;;;;;;22.95;4.20;;;29.90;79.40;;;;;;4981890;28;20062;-64
2022/10/03 09:44:26;;;;;;;17.95;4.60;;;29.90;79.30;;;;;;4979063;28;20030;-65
2022/10/03 09:47:27;;;;;;;20.17;4.80;;;29.80;79.50;;;;;;4978041;28;20141;-65
2022/10/03 09:50:18;;;;;;;16.95;4.32;;;29.80;79.90;;;;;;4980931;28;20034;-67
2022/10/03 09:53:01;;;;;;;23.88;5.13;;;29.70;80.40;;;;;;4981564;28;20042;-66
2022/10/03 09:55:37;;;;;;;20.95;4.68;;;29.60;80.50;;;;;;4981275;28;20026;-64
2022/10/03 09:58:38;;;;;;;21.77;5.22;;;29.60;80.80;;;;;;4989234;28;20025;-65
2022/10/03 10:01:32;;;;;;;14.68;4.93;;;29.50;81.60;;;;;;5026954;28;20057;-64
2022/10/03 10:04:32;;;;;;;17.55;4.20;;;29.50;82.20;;;;;;5026381;28;20391;-65
2022/10/03 10:07:35;;;;;;;24.95;5.10;;;29.50;83.30;;;;;;5024123;28;20129;-67
2022/10/03 10:10:25;;;;;;;13.45;4.35;;;29.50;83.90;;;;;;5026916;28;20021;-68
2022/10/03 10:13:23;;;;;;;12.77;4.18;;;29.40;84.60;;;;;;5025446;28;20072;-68
2022/10/03 10:16:22;;;;;;;11.95;4.22;;;29.40;85.10;;;;;;5029862;28;20401;-68
2022/10/03 10:19:28;;;;;;;18.08;4.55;;;29.40;85.40;;;;;;5029561;28;20038;-69
2022/10/03 10:21:58;;;;;;;16.73;4.50;;;29.40;85.80;;;;;;5018923;28;20026;-69
2022/10/03 10:24:45;;;;;;;16.67;4.15;;;29.40;86.70;;;;;;5026043;28;20086;-68
2022/10/03 10:27:48;;;;;;;16.05;4.50;;;29.30;87.30;;;;;;5025319;28;20021;-68
2022/10/03 10:30:33;;;;;;;15.13;4.60;;;29.20;87.70;;;;;;5028406;28;20444;-67
2022/10/03 10:33:22;;;;;;;18.33;4.32;;;29.20;87.90;;;;;;5026600;28;20375;-68
2022/10/03 10:36:05;;;;;;;13.30;4.35;;;29.20;88.30;;;;;;5023605;28;20113;-69
2022/10/03 10:38:53;;;;;;;13.63;4.47;;;29.20;88.60;;;;;;5026655;28;20026;-69
2022/10/03 10:41:56;;;;;;;12.88;4.82;;;29.20;88.30;;;;;;5027264;28;20383;-68
2022/10/03 10:45:02;;;;;;;18.88;5.18;;;29.10;88.60;;;;;;5025201;28;20494;-68
2022/10/03 10:48:02;;;;;;;14.18;4.78;;;29.10;89.50;;;;;;5026144;28;20030;-68
2022/10/03 10:50:49;;;;;;;20.50;4.93;;;29.00;90.10;;;;;;5032143;28;20116;-68
2022/10/03 10:53:52;;;;;;;31.85;4.53;;;29.00;90.40;;;;;;5030115;28;20034;-68
2022/10/03 10:56:51;;;;;;;18.00;4.93;;;28.90;91.10;;;;;;5026336;28;20026;-69
2022/10/03 10:59:35;;;;;;;11.35;3.60;;;28.80;91.40;;;;;;5029248;28;20018;-66
2022/10/03 11:02:27;;;;;;;14.75;4.97;;;28.90;91.80;;;;;;5029666;28;20017;-65
2022/10/03 11:04:54;;;;;;;18.23;4.47;;;28.90;91.80;;;;;;5027737;28;20029;-67
2022/10/03 11:07:42;;;;;;;21.98;5.60;;;28.90;91.90;;;;;;5028197;28;20104;-68
2022/10/03 11:10:56;;;;;;;25.80;5.35;;;28.90;92.10;;;;;;5018849;28;20034;-67
2022/10/03 11:13:32;;;;;;;16.35;5.38;;;28.90;92.30;;;;;;5021663;28;20033;-67
2022/10/03 11:16:11;;;;;;;16.15;4.93;;;28.80;92.80;;;;;;5024043;28;20046;-68
2022/10/03 11:19:00;;;;;;;15.65;5.20;;;28.80;92.70;;;;;;5023755;28;20017;-68
2022/10/03 11:21:58;;;;;;;12.18;4.78;;;28.80;93.00;;;;;;5025414;28;20133;-68
2022/10/03 11:25:00;;;;;;;13.25;5.22;;;28.70;93.30;;;;;;5026998;28;20115;-67
2022/10/03 11:27:42;;;;;;;15.68;5.70;;;28.70;93.30;;;;;;5021394;28;20021;-68
2022/10/03 11:30:59;;;;;;;12.40;5.03;;;28.70;93.30;;;;;;5025184;28;20033;-66
2022/10/03 11:33:59;;;;;;;11.02;4.70;;;28.70;93.50;;;;;;5022566;28;20021;-67
2022/10/03 11:36:34;;;;;;;15.38;5.00;;;28.70;93.80;;;;;;5026064;28;20053;-67
2022/10/03 11:39:25;;;;;;;13.57;4.22;;;28.60;94.00;;;;;;5019649;28;20021;-67
2022/10/03 11:42:01;;;;;;;14.90;4.63;;;28.40;94.50;;;;;;5025265;28;20026;-67
2022/10/03 11:44:36;;;;;;;11.20;4.88;;;28.40;95.00;;;;;;5025342;28;20061;-70
2022/10/03 11:47:35;;;;;;;14.87;5.00;;;28.40;95.20;;;;;;5023274;28;20049;-68
2022/10/03 11:50:19;;;;;;;12.40;4.57;;;28.30;95.40;;;;;;5022019;28;20072;-69
2022/10/03 11:52:48;;;;;;;17.17;5.20;;;28.40;95.60;;;;;;5022937;28;20498;-67
2022/10/03 11:55:27;;;;;;;18.15;5.47;;;28.40;95.50;;;;;;5024042;28;20022;-70
2022/10/03 11:58:23;;;;;;;23.67;5.70;;;28.30;96.10;;;;;;5025120;28;20028;-67
2022/10/03 12:01:17;;;;;;;16.00;4.90;;;28.20;96.00;;;;;;5025069;28;20072;-68
2022/10/03 12:04:06;;;;;;;17.10;5.38;;;28.20;96.70;;;;;;5021837;28;20021;-67
2022/10/03 12:10:32;;;;;;;16.30;5.55;;;28.20;96.80;;;;;;5021961;28;20075;-68
2022/10/03 12:13:03;;;;;;;16.45;5.25;;;28.10;97.00;;;;;;5019254;28;20044;-68
2022/10/03 12:15:44;;;;;;;15.38;4.95;;;28.10;97.40;;;;;;5024304;28;20056;-69
2022/10/03 12:18:48;;;;;;;16.52;4.53;;;28.10;97.80;;;;;;5021383;28;20029;-69
2022/10/03 12:21:23;;;;;;;16.42;4.85;;;28.00;98.10;;;;;;5022008;28;20028;-68
2022/10/03 12:24:05;;;;;;;11.55;4.40;;;28.00;98.50;;;;;;5027709;28;20029;-66
2022/10/03 12:26:52;;;;;;;13.85;4.78;;;28.00;98.30;;;;;;5022104;28;20057;-68
2022/10/03 12:29:21;;;;;;;12.35;4.25;;;28.00;98.30;;;;;;5020198;28;20026;-66
2022/10/03 12:32:00;;;;;;;14.10;4.53;;;27.90;98.40;;;;;;5021426;28;20103;-67
2022/10/03 12:34:48;;;;;;;14.13;4.40;;;27.90;98.70;;;;;;5024843;28;20095;-68
2022/10/03 12:37:38;;;;;;;16.00;4.43;;;27.90;98.90;;;;;;5023632;28;20017;-68
2022/10/03 12:40:26;;;;;;;11.80;4.22;;;27.80;98.90;;;;;;5017432;28;20128;-69
2022/10/03 12:43:14;;;;;;;12.88;4.40;;;27.80;99.20;;;;;;5025243;28;20053;-67
2022/10/03 12:45:53;;;;;;;12.98;4.18;;;27.80;99.40;;;;;;5021043;28;20033;-68
2022/10/03 12:48:35;;;;;;;15.40;3.63;;;27.90;99.60;;;;;;5022251;28;20121;-67
2022/10/03 12:51:41;;;;;;;18.27;4.70;;;27.90;99.60;;;;;;5022464;28;20021;-67
2022/10/03 12:54:34;;;;;;;10.60;4.25;;;27.90;99.40;;;;;;4988377;28;20034;-66
2022/10/03 12:57:22;;;;;;;17.88;4.57;;;27.80;99.50;;;;;;4988111;28;20033;-68
2022/10/03 13:00:19;;;;;;;14.38;5.07;;;27.70;99.80;;;;;;4988432;28;20030;-69
2022/10/03 13:03:04;;;;;;;;;;;27.80;99.90;;;;;;4988686;28;20221;-67
2022/10/03 13:05:35;;;;;;;19.75;4.88;;;27.60;99.90;;;;;;4988048;28;19910;-67
2022/10/03 13:08:14;;;;;;;20.02;4.40;;;27.70;99.90;;;;;;4987447;28;20054;-67
2022/10/03 13:10:44;;;;;;;15.68;4.60;;;27.60;99.90;;;;;;4986739;28;20077;-68
2022/10/03 13:13:35;;;;;;;18.27;4.63;;;27.50;99.90;;;;;;4988071;28;20035;-67
2022/10/03 13:16:23;;;;;;;19.85;4.40;;;27.50;99.90;;;;;;4988714;28;20054;-69
2022/10/03 13:19:13;;;;;;;24.58;4.95;;;27.50;99.90;;;;;;4987536;28;20045;-67
2022/10/03 13:22:05;;;;;;;17.60;4.28;;;27.50;99.90;;;;;;4987897;28;20031;-68
2022/10/03 13:24:42;;;;;;;22.20;5.20;;;27.50;99.90;;;;;;4988721;28;20534;-68
2022/10/03 13:27:28;;;;;;;24.48;5.50;;;27.50;99.90;;;;;;4987832;28;20105;-67
2022/10/03 13:30:16;;;;;;;24.10;5.70;;;27.50;99.90;;;;;;4994867;28;20107;-69
2022/10/03 13:32:50;;;;;;;32.35;5.78;;;27.50;99.90;;;;;;5022494;28;20048;-68
2022/10/03 13:35:58;;;;;;;24.48;6.72;;;27.50;99.90;;;;;;5020216;28;20029;-69
2022/10/03 13:38:45;;;;;;;29.13;6.43;;;27.50;99.90;;;;;;5019769;28;20037;-68
2022/10/03 13:41:28;;;;;;;33.63;6.03;;;27.50;99.90;;;;;;5019580;28;20025;-69
2022/10/03 13:44:03;;;;;;;44.65;7.05;;;27.50;99.90;;;;;;5021036;28;20030;-68
2022/10/03 13:46:43;;;;;;;27.52;7.00;;;27.40;99.90;;;;;;5017905;28;20029;-68
2022/10/03 13:49:33;;;;;;;34.70;6.97;;;27.30;99.90;;;;;;5024295;28;20029;-69
2022/10/03 13:52:20;;;;;;;37.95;8.18;;;27.40;99.90;;;;;;5037362;28;20033;-69
2022/10/03 13:55:12;;;;;;;39.28;8.40;;;27.30;99.90;;;;;;5019142;28;20115;-68
2022/10/03 13:58:20;;;;;;;32.67;8.05;;;27.30;99.90;;;;;;5018668;28;20025;-67
2022/10/03 14:01:13;;;;;;;44.47;8.95;;;27.30;99.90;;;;;;5015157;28;20097;-69
2022/10/03 14:04:00;;;;;;;27.77;8.18;;;27.40;99.90;;;;;;5023199;28;20026;-71
2022/10/03 14:06:35;;;;;;;46.10;10.77;;;27.40;99.90;;;;;;5026071;28;20123;-68
2022/10/03 14:09:20;;;;;;;55.80;12.20;;;27.40;99.90;;;;;;5020554;28;20025;-68
2022/10/03 14:12:22;;;;;;;36.47;11.13;;;27.50;99.90;;;;;;5025056;28;20108;-68
2022/10/03 14:15:25;;;;;;;59.03;11.82;;;27.50;99.90;;;;;;5022364;28;20036;-68
2022/10/03 14:18:18;;;;;;;53.67;11.93;;;27.50;99.90;;;;;;5018500;28;20037;-68
2022/10/03 14:21:12;;;;;;;50.35;10.10;;;27.50;99.90;;;;;;5016473;28;20497;-71
2022/10/03 14:23:47;;;;;;;41.33;9.57;;;27.50;99.90;;;;;;5024172;28;20029;-69
2022/10/03 14:26:39;;;;;;;30.90;8.25;;;27.50;99.90;;;;;;5018459;28;20068;-68
2022/10/03 14:29:36;;;;;;;25.55;7.47;;;27.50;99.90;;;;;;5012366;28;20503;-69
2022/10/03 14:32:15;;;;;;;37.88;8.07;;;27.60;99.90;;;;;;5015712;28;20049;-67
2022/10/03 14:34:51;;;;;;;31.77;7.60;;;27.70;99.90;;;;;;5023253;28;20124;-69
2022/10/03 14:37:29;;;;;;;;;;;27.80;99.90;;;;;;5017800;28;20458;-69
2022/10/03 14:40:27;;;;;;;30.77;8.07;;;27.80;99.90;;;;;;5016008;28;19909;-68